createdAt,value
2018-08-03T12:34:16.655Z,22.7
2018-08-03T12:35:05.874Z,22.8
2018-08-03T12:35:56.713Z,22.8
2018-08-03T12:36:47.372Z,22.8
2018-08-03T12:37:37.405Z,22.8
2018-08-03T12:38:26.849Z,22.8
2018-08-03T12:39:16.997Z,22.8
2018-08-03T12:40:07.670Z,22.8
2018-08-03T12:40:56.830Z,22.8
2018-08-03T12:41:47.169Z,22.8
2018-08-03T12:42:37.511Z,22.8
2018-08-03T12:43:28.467Z,22.8
2018-08-03T12:44:17.919Z,22.8
2018-08-03T12:45:07.774Z,22.8
2018-08-03T12:45:58.724Z,22.8
2018-08-03T12:46:47.578Z,22.8
2018-08-03T12:47:36.292Z,22.8
2018-08-03T12:48:27.399Z,22.8
2018-08-03T12:49:18.044Z,22.8
2018-08-03T12:50:08.396Z,22.8
2018-08-03T12:50:58.252Z,22.8
2018-08-03T12:51:49.107Z,22.8
2018-08-03T12:52:39.704Z,22.8
2018-08-03T12:53:28.155Z,22.8
2018-08-03T12:54:18.464Z,22.8
2018-08-03T12:55:08.586Z,22.8
2018-08-03T12:55:58.345Z,22.8
2018-08-03T12:56:49.232Z,22.8
2018-08-03T12:57:38.962Z,22.8
2018-08-03T12:58:28.470Z,22.8
2018-08-03T12:59:18.911Z,22.8
2018-08-03T13:00:08.638Z,22.8
2018-08-03T13:00:59.208Z,22.8
2018-08-03T13:01:49.266Z,22.8
2018-08-03T13:02:40.784Z,22.8
2018-08-03T13:04:37.071Z,22.8
2018-08-03T13:06:16.337Z,22.9
2018-08-03T13:07:06.832Z,22.8
2018-08-03T13:08:03.112Z,22.8
2018-08-03T13:09:00.885Z,22.8
2018-08-03T13:09:37.740Z,22.8
2018-08-03T13:10:26.913Z,22.9
2018-08-03T13:11:16.690Z,22.8
2018-08-03T13:12:07.366Z,22.8
2018-08-03T13:12:56.794Z,22.9
2018-08-03T13:13:47.438Z,22.9
2018-08-03T13:14:36.788Z,22.9
2018-08-03T13:15:26.863Z,22.9
2018-08-03T13:16:17.172Z,22.9
2018-08-03T13:17:06.928Z,22.9
2018-08-03T13:17:57.858Z,22.9
2018-08-03T13:18:47.583Z,22.9
2018-08-03T13:19:37.888Z,22.9
2018-08-03T13:20:27.439Z,22.9
2018-08-03T13:21:18.500Z,22.9
2018-08-03T13:22:08.243Z,22.9
2018-08-03T13:22:57.693Z,22.9
2018-08-03T13:23:47.507Z,22.9
2018-08-03T13:24:37.221Z,22.9
2018-08-03T13:25:26.952Z,22.9
2018-08-03T13:26:17.687Z,22.9
2018-08-03T13:27:07.677Z,22.9
2018-08-03T13:27:58.092Z,22.9
2018-08-03T13:28:49.002Z,22.9
2018-08-03T13:29:38.812Z,22.9
2018-08-03T13:30:27.735Z,22.9
2018-08-03T13:31:18.624Z,22.9
2018-08-03T13:32:08.925Z,22.9
2018-08-03T13:32:59.302Z,22.9
2018-08-03T13:33:49.014Z,22.9
2018-08-03T13:34:38.817Z,22.9
2018-08-03T13:35:29.034Z,22.9
2018-08-03T13:36:20.470Z,22.9
2018-08-03T13:37:08.676Z,22.9
2018-08-03T13:37:58.754Z,22.9
2018-08-03T13:38:49.410Z,22.9
2018-08-03T13:39:39.470Z,22.9
2018-08-03T13:40:29.266Z,22.9
2018-08-03T13:41:19.326Z,22.9
2018-08-03T13:42:09.942Z,22.9
2018-08-03T13:42:58.804Z,22.9
2018-08-03T13:43:49.838Z,22.9
2018-08-03T13:44:40.291Z,22.9
2018-08-03T13:45:29.390Z,22.9
2018-08-03T13:46:19.978Z,23
2018-08-03T13:47:10.085Z,23
2018-08-03T13:47:59.852Z,23
2018-08-03T13:48:49.387Z,23
2018-08-03T13:49:39.729Z,23
2018-08-03T13:50:31.599Z,23
2018-08-03T13:51:20.451Z,23
2018-08-03T13:52:10.495Z,23
2018-08-03T13:53:00.530Z,23
2018-08-03T13:53:49.979Z,23
2018-08-03T13:54:40.423Z,23
2018-08-03T13:55:31.052Z,23
2018-08-03T13:56:20.265Z,23
2018-08-03T13:57:10.576Z,23.1
2018-08-03T13:58:01.425Z,23
2018-08-03T13:58:49.872Z,23.1
2018-08-03T13:59:41.102Z,23
2018-08-03T14:00:30.063Z,23
2018-08-03T14:01:20.623Z,23.1
2018-08-03T14:02:11.023Z,23.1
2018-08-03T14:03:01.073Z,23.1
2018-08-03T14:03:50.839Z,23.1
2018-08-03T14:04:40.695Z,23.1
2018-08-03T14:05:30.677Z,23.1
2018-08-03T14:06:20.752Z,23.1
2018-08-03T14:07:10.638Z,23.1
2018-08-03T14:08:01.982Z,23.1
2018-08-03T14:08:52.070Z,23.1
2018-08-03T14:09:42.122Z,23.1
2018-08-03T14:10:31.872Z,23.1
2018-08-03T14:11:21.945Z,23.1
2018-08-03T14:12:13.162Z,23.1
2018-08-03T14:13:02.082Z,23.1
2018-08-03T14:13:52.428Z,23.1
2018-08-03T14:14:41.107Z,23.1
2018-08-03T14:15:31.777Z,23.1
2018-08-03T14:16:22.115Z,23.1
2018-08-03T14:17:12.411Z,23.1
2018-08-03T14:18:02.545Z,23.1
2018-08-03T14:18:52.396Z,23.1
2018-08-03T14:19:42.098Z,23.1
2018-08-03T14:20:32.704Z,23.1
2018-08-03T14:21:23.076Z,23.1
2018-08-03T14:22:13.882Z,23.1
2018-08-03T14:23:02.567Z,23.1
2018-08-03T14:23:52.927Z,23.1
2018-08-03T14:24:42.781Z,23.1
2018-08-03T14:25:34.489Z,23.1
2018-08-03T14:26:23.201Z,23.2
2018-08-03T14:27:12.500Z,23.2
2018-08-03T14:28:03.053Z,23.2
2018-08-03T14:28:53.345Z,23.2
2018-08-03T14:29:43.232Z,23.2
2018-08-03T14:30:33.803Z,23.2
2018-08-03T14:31:24.129Z,23.2
2018-08-03T14:32:13.655Z,23.2
2018-08-03T14:33:03.132Z,23.2
2018-08-03T14:33:54.052Z,23.2
2018-08-03T14:34:43.335Z,23.2
2018-08-03T14:35:32.515Z,23.2
2018-08-03T14:36:23.148Z,23.2
2018-08-03T14:37:13.730Z,23.2
2018-08-03T14:38:04.001Z,23.3
2018-08-03T14:38:53.685Z,23.3
2018-08-03T14:39:42.970Z,23.3
2018-08-03T14:40:34.004Z,23.3
2018-08-03T14:41:25.345Z,23.3
2018-08-03T14:42:13.369Z,23.3
2018-08-03T14:43:03.602Z,23.3
2018-08-03T14:43:54.724Z,23.3
2018-08-03T14:44:43.421Z,23.3
2018-08-03T14:45:34.421Z,23.3
2018-08-03T14:46:25.023Z,23.3
2018-08-03T14:47:14.344Z,23.3
2018-08-03T14:48:03.963Z,23.3
2018-08-03T14:48:54.620Z,23.3
2018-08-03T14:49:44.979Z,23.3
2018-08-03T14:50:34.263Z,23.3
2018-08-03T14:51:25.070Z,23.3
2018-08-03T14:52:14.621Z,23.3
2018-08-03T14:53:04.500Z,23.3
2018-08-03T14:53:54.994Z,23.3
2018-08-03T14:54:45.304Z,23.3
2018-08-03T14:55:35.143Z,23.3
2018-08-03T14:56:25.209Z,23.3
2018-08-03T14:57:15.549Z,23.3
2018-08-03T14:58:05.544Z,23.3
2018-08-03T14:58:55.370Z,23.3
2018-08-03T14:59:45.253Z,23.3
2018-08-03T15:00:35.283Z,23.3
2018-08-03T15:01:25.411Z,23.3
2018-08-03T15:02:15.367Z,23.3
2018-08-03T15:03:04.753Z,23.3
2018-08-03T15:03:55.860Z,23.3
2018-08-03T15:04:45.643Z,23.3
2018-08-03T15:05:35.706Z,23.3
2018-08-03T15:06:26.006Z,23.3
2018-08-03T15:07:16.395Z,23.4
2018-08-03T15:08:07.907Z,23.4
2018-08-03T15:08:56.653Z,23.4
2018-08-03T15:09:45.767Z,23.4
2018-08-03T15:10:35.872Z,23.4
2018-08-03T15:11:26.430Z,23.4
2018-08-03T15:12:15.621Z,23.4
2018-08-03T15:13:07.107Z,23.4
2018-08-03T15:13:57.010Z,23.4
2018-08-03T15:14:47.230Z,23.4
2018-08-03T15:15:36.771Z,23.4
2018-08-03T15:16:26.836Z,23.4
2018-08-03T15:17:17.219Z,23.4
2018-08-03T15:18:07.213Z,23.4
2018-08-03T15:18:56.195Z,23.4
2018-08-03T15:19:49.144Z,23.4
2018-08-03T15:20:37.088Z,23.4
2018-08-03T15:21:27.749Z,23.4
2018-08-03T15:22:16.778Z,23.4
2018-08-03T15:23:07.596Z,23.4
2018-08-03T15:23:57.657Z,23.4
2018-08-03T15:24:47.184Z,23.4
2018-08-03T15:25:36.910Z,23.4
2018-08-03T15:26:26.987Z,23.4
2018-08-03T15:27:17.079Z,23.4
2018-08-03T15:28:07.740Z,23.4
2018-08-03T15:28:58.627Z,23.4
2018-08-03T15:29:48.367Z,23.4
2018-08-03T15:30:38.526Z,23.4
2018-08-03T15:31:28.488Z,23.4
2018-08-03T15:32:18.085Z,23.4
2018-08-03T15:33:07.571Z,23.4
2018-08-03T15:33:58.420Z,23.4
2018-08-03T15:34:48.761Z,23.4
2018-08-03T15:35:38.839Z,23.4
2018-08-03T15:36:28.412Z,23.4
2018-08-03T15:37:18.489Z,23.4
2018-08-03T15:38:07.650Z,23.4
2018-08-03T15:38:59.116Z,23.5
2018-08-03T15:39:48.637Z,23.5
2018-08-03T15:40:38.196Z,23.4
2018-08-03T15:41:29.024Z,23.5
2018-08-03T15:42:19.390Z,23.5
2018-08-03T15:43:08.338Z,23.5
2018-08-03T15:43:58.387Z,23.5
2018-08-03T15:44:49.924Z,23.5
2018-08-03T15:45:38.932Z,23.5
2018-08-03T15:46:29.809Z,23.5
2018-08-03T15:47:19.193Z,23.5
2018-08-03T15:48:09.560Z,23.5
2018-08-03T15:48:59.025Z,23.5
2018-08-03T15:49:49.485Z,23.5
2018-08-03T15:50:39.253Z,23.5
2018-08-03T15:51:29.308Z,23.5
2018-08-03T15:52:20.153Z,23.5
2018-08-03T15:53:10.219Z,23.6
2018-08-03T15:53:59.972Z,23.6
2018-08-03T15:54:49.466Z,23.6
2018-08-03T15:55:39.557Z,23.5
2018-08-03T15:56:30.472Z,23.6
2018-08-03T15:57:19.971Z,23.5
2018-08-03T15:58:10.325Z,23.6
2018-08-03T15:59:00.380Z,23.6
2018-08-03T19:18:41.219Z,23.5
2018-08-03T19:19:16.074Z,23.5
2018-08-03T19:20:07.952Z,23.5
2018-08-03T19:20:57.463Z,23.5
2018-08-03T19:21:48.537Z,23.5
2018-08-03T19:22:36.867Z,23.5
2018-08-03T19:23:42.544Z,23.5
2018-08-03T19:24:16.711Z,23.5
2018-08-03T19:25:07.406Z,23.5
2018-08-03T19:25:56.817Z,23.5
2018-08-03T19:26:47.783Z,23.5
2018-08-03T19:27:37.768Z,23.5
2018-08-03T19:28:42.245Z,23.5
2018-08-03T19:29:17.593Z,23.5
2018-08-03T19:30:07.218Z,23.5
2018-08-03T19:30:58.075Z,23.5
2018-08-03T19:31:47.594Z,23.5
2018-08-03T19:32:37.578Z,23.5
2018-08-03T19:33:28.663Z,23.5
2018-08-03T19:34:17.876Z,23.5
2018-08-03T19:35:07.678Z,23.5
2018-08-03T19:35:57.997Z,23.5
2018-08-03T19:36:48.035Z,23.5
2018-08-03T19:37:38.941Z,23.5
2018-08-03T19:38:28.135Z,23.5
2018-08-03T19:39:17.963Z,23.5
2018-08-03T19:40:08.689Z,23.5
2018-08-03T19:40:58.905Z,23.5
2018-08-03T19:41:48.708Z,23.5
2018-08-03T19:42:37.916Z,23.5
2018-08-03T19:43:29.105Z,23.5
2018-08-03T19:44:19.461Z,23.5
2018-08-03T19:45:08.687Z,23.5
2018-08-03T19:46:48.717Z,23.5
2018-08-03T19:47:39.620Z,23.5
2018-08-03T19:48:30.253Z,23.5
2018-08-03T19:49:34.227Z,23.5
2018-08-03T19:50:23.715Z,23.5
2018-08-03T19:50:58.782Z,23.5
2018-08-03T19:51:49.357Z,23.5
2018-08-03T19:52:54.054Z,23.5
2018-08-03T19:53:28.906Z,23.5
2018-08-03T19:54:19.815Z,23.5
2018-08-03T19:55:09.622Z,23.5
2018-08-03T19:55:59.855Z,23.4
2018-08-03T19:56:49.944Z,23.5
2018-08-03T19:57:39.683Z,23.4
2018-08-03T19:58:46.063Z,23.5
2018-08-03T19:59:21.791Z,23.4
2018-08-03T20:00:10.542Z,23.5
2018-08-03T20:01:00.712Z,23.4
2018-08-03T20:01:49.759Z,23.5
2018-08-03T20:02:54.399Z,23.5
2018-08-03T20:03:29.289Z,23.4
2018-08-03T20:04:19.609Z,23.5
2018-08-03T20:05:11.972Z,23.5
2018-08-03T20:06:00.477Z,23.4
2018-08-03T20:06:51.145Z,23.5
2018-08-03T20:07:39.602Z,23.4
2018-08-03T20:08:30.467Z,23.4
2018-08-03T20:09:20.484Z,23.4
2018-08-03T20:10:10.289Z,23.5
2018-08-03T20:11:00.344Z,23.4
2018-08-03T20:11:50.181Z,23.4
2018-08-03T20:12:40.985Z,23.4
2018-08-03T20:13:31.571Z,23.4
2018-08-03T20:14:20.400Z,23.4
2018-08-03T20:15:10.728Z,23.4
2018-08-03T20:16:01.033Z,23.4
2018-08-03T20:16:50.857Z,23.4
2018-08-03T20:17:40.853Z,23.4
2018-08-03T20:18:31.712Z,23.4
2018-08-03T20:19:21.592Z,23.4
2018-08-03T20:20:11.616Z,23.4
2018-08-03T20:21:16.602Z,23.4
2018-08-03T20:21:51.175Z,23.4
2018-08-03T20:22:42.037Z,23.4
2018-08-03T20:23:32.201Z,23.4
2018-08-03T20:24:21.604Z,23.4
2018-08-03T20:25:11.350Z,23.4
2018-08-03T20:26:02.282Z,23.4
2018-08-03T20:26:52.136Z,23.4
2018-08-03T20:27:42.487Z,23.4
2018-08-03T20:28:46.999Z,23.4
2018-08-03T20:29:22.544Z,23.4
2018-08-03T20:30:12.457Z,23.4
2018-08-03T20:31:17.321Z,23.4
2018-08-03T20:31:52.900Z,23.4
2018-08-03T20:32:43.169Z,23.4
2018-08-03T20:33:32.786Z,23.4
2018-08-03T20:34:22.338Z,23.4
2018-08-03T20:35:12.589Z,23.4
2018-08-03T20:36:03.382Z,23.4
2018-08-03T20:36:53.156Z,23.4
2018-08-03T20:37:42.694Z,23.4
2018-08-03T20:38:33.967Z,23.4
2018-08-03T20:39:24.479Z,23.4
2018-08-03T20:40:13.806Z,23.4
2018-08-03T20:41:03.647Z,23.4
2018-08-03T20:41:54.040Z,23.4
2018-08-03T20:42:43.601Z,23.4
2018-08-03T20:43:33.154Z,23.4
2018-08-03T20:44:22.620Z,23.4
2018-08-03T20:45:13.517Z,23.4
2018-08-03T20:46:03.926Z,23.4
2018-08-03T20:46:53.676Z,23.4
2018-08-03T20:47:44.329Z,23.4
2018-08-03T20:48:34.346Z,23.4
2018-08-03T20:49:23.746Z,23.4
2018-08-03T20:50:13.661Z,23.4
2018-08-03T20:51:03.690Z,23.4
2018-08-03T20:51:54.484Z,23.4
2018-08-03T20:52:59.038Z,23.4
2018-08-03T20:53:34.410Z,23.4
2018-08-03T20:55:13.797Z,23.4
2018-08-03T20:56:19.317Z,23.4
2018-08-03T20:56:54.896Z,23.4
2018-08-03T20:57:45.034Z,23.4
2018-08-03T20:58:36.365Z,23.4
2018-08-03T20:59:25.394Z,23.4
2018-08-03T21:00:30.117Z,23.4
2018-08-03T21:01:05.330Z,23.4
2018-08-03T21:01:55.434Z,23.4
2018-08-03T21:02:45.685Z,23.4
2018-08-03T21:03:34.431Z,23.4
2018-08-03T21:04:25.342Z,23.4
2018-08-03T21:05:29.749Z,23.4
2018-08-03T21:06:05.891Z,23.4
2018-08-03T21:06:55.451Z,23.4
2018-08-03T21:08:00.126Z,23.4
2018-08-03T21:08:35.330Z,23.4
2018-08-03T21:09:26.298Z,23.4
2018-08-03T21:10:30.376Z,23.4
2018-08-03T21:11:05.754Z,23.4
2018-08-03T21:11:56.108Z,23.4
2018-08-03T21:12:48.360Z,23.4
2018-08-03T21:13:36.546Z,23.4
2018-08-03T21:14:26.575Z,23.4
2018-08-03T21:15:15.601Z,23.4
2018-08-03T21:16:06.248Z,23.4
2018-08-03T21:16:56.307Z,23.4
2018-08-03T21:17:47.039Z,23.4
2018-08-03T21:18:36.178Z,23.4
2018-08-03T21:19:25.955Z,23.4
2018-08-03T21:20:16.151Z,23.4
2018-08-03T21:21:06.328Z,23.4
2018-08-03T21:21:57.003Z,23.4
2018-08-03T21:22:46.626Z,23.4
2018-08-03T21:23:36.845Z,23.4
2018-08-03T21:24:26.770Z,23.4
2018-08-03T21:25:16.130Z,23.4
2018-08-03T21:26:21.367Z,23.4
2018-08-03T21:26:56.763Z,23.4
2018-08-03T21:27:46.257Z,23.4
2018-08-03T21:28:36.365Z,23.4
2018-08-03T21:29:27.650Z,23.4
2018-08-03T21:30:19.186Z,23.4
2018-08-03T21:31:07.709Z,23.4
2018-08-03T21:32:12.564Z,23.4
2018-08-03T21:32:47.452Z,23.4
2018-08-03T21:33:37.858Z,23.4
2018-08-03T21:34:27.476Z,23.4
2018-08-03T21:35:17.494Z,23.4
2018-08-03T21:36:07.504Z,23.4
2018-08-03T21:37:11.781Z,23.4
2018-08-03T21:37:48.092Z,23.4
2018-08-03T21:38:37.674Z,23.4
2018-08-03T21:39:42.314Z,23.4
2018-08-03T21:40:17.750Z,23.4
2018-08-03T21:41:07.820Z,23.4
2018-08-03T21:41:57.910Z,23.4
2018-08-03T21:43:02.882Z,23.4
2018-08-03T21:43:52.869Z,23.4
2018-08-03T21:44:28.443Z,23.4
2018-08-03T21:45:18.726Z,23.4
2018-08-03T21:46:08.002Z,23.4
2018-08-03T21:46:58.311Z,23.4
2018-08-03T21:47:48.381Z,23.4
2018-08-03T21:48:38.678Z,23.4
2018-08-03T21:49:29.137Z,23.4
2018-08-03T21:50:18.866Z,23.4
2018-08-03T21:51:08.889Z,23.4
2018-08-03T21:52:11.050Z,23.4
2018-08-03T21:52:49.283Z,23.4
2018-08-03T21:53:53.306Z,23.4
2018-08-03T21:54:28.658Z,23.4
2018-08-03T21:55:18.450Z,23.4
2018-08-03T21:56:09.615Z,23.4
2018-08-03T21:56:58.555Z,23.4
2018-08-03T21:57:49.121Z,23.4
2018-08-03T21:58:54.166Z,23.4
2018-08-03T21:59:28.519Z,23.4
2018-08-03T22:00:19.352Z,23.4
2018-08-03T22:01:09.669Z,23.3
2018-08-03T22:02:00.188Z,23.3
2018-08-03T22:03:03.177Z,23.3
2018-08-03T22:03:39.872Z,23.4
2018-08-03T22:04:28.658Z,23.4
2018-08-03T22:05:19.509Z,23.4
2018-08-03T22:06:25.085Z,23.3
2018-08-03T22:06:59.885Z,23.4
2018-08-03T22:07:50.759Z,23.3
2018-08-03T22:08:39.998Z,23.3
2018-08-03T22:09:30.007Z,23.3
2018-08-03T22:10:19.732Z,23.3
2018-08-03T22:11:09.989Z,23.3
2018-08-03T22:12:01.213Z,23.4
2018-08-03T22:12:49.801Z,23.4
2018-08-03T22:13:40.327Z,23.3
2018-08-03T22:14:31.558Z,23.3
2018-08-03T22:15:35.464Z,23.3
2018-08-03T22:16:10.720Z,23.3
2018-08-03T22:17:01.142Z,23.3
2018-08-03T22:17:50.726Z,23.3
2018-08-03T22:18:40.248Z,23.3
2018-08-03T22:19:30.991Z,23.3
2018-08-03T22:20:21.191Z,23.3
2018-08-03T22:21:10.992Z,23.3
2018-08-03T22:22:01.646Z,23.3
2018-08-03T22:22:51.405Z,23.3
2018-08-03T22:23:41.216Z,23.3
2018-08-03T22:24:33.400Z,23.3
2018-08-03T22:25:22.213Z,23.3
2018-08-03T22:26:11.704Z,23.3
2018-08-03T22:27:02.241Z,23.3
2018-08-03T22:27:52.249Z,23.3
2018-08-03T22:28:41.760Z,23.3
2018-08-03T22:29:32.373Z,23.3
2018-08-03T22:30:22.018Z,23.3
2018-08-03T22:31:11.764Z,23.3
2018-08-03T22:32:01.775Z,23.3
2018-08-03T22:32:52.334Z,23.3
2018-08-03T22:33:42.456Z,23.3
2018-08-03T22:34:31.825Z,23.3
2018-08-03T22:35:21.531Z,23.3
2018-08-03T22:36:12.180Z,23.3
2018-08-03T22:37:02.770Z,23.3
2018-08-03T22:37:52.790Z,23.3
2018-08-03T22:38:59.076Z,23.3
2018-08-03T22:39:33.218Z,23.3
2018-08-03T22:40:23.201Z,23.3
2018-08-03T22:41:12.387Z,23.3
2018-08-03T22:42:02.339Z,23.3
2018-08-03T22:42:53.187Z,23.3
2018-08-03T22:43:42.412Z,23.3
2018-08-03T22:44:47.513Z,23.3
2018-08-03T22:45:22.592Z,23.3
2018-08-03T22:46:13.461Z,23.3
2018-08-03T22:47:18.025Z,23.3
2018-08-03T22:47:53.197Z,23.3
2018-08-03T22:48:43.099Z,23.3
2018-08-03T22:49:32.863Z,23.3
2018-08-03T22:50:22.912Z,23.3
2018-08-03T22:51:13.269Z,23.3
2018-08-03T22:52:03.213Z,23.3
2018-08-03T22:52:53.090Z,23.3
2018-08-03T22:53:43.325Z,23.3
2018-08-03T22:54:34.066Z,23.3
2018-08-03T22:55:38.123Z,23.3
2018-08-03T22:56:13.666Z,23.3
2018-08-03T22:57:07.875Z,23.3
2018-08-03T22:57:53.816Z,23.3
2018-08-03T22:58:43.816Z,23.3
2018-08-03T22:59:34.194Z,23.3
2018-08-03T23:00:24.261Z,23.3
2018-08-03T23:01:15.404Z,23.3
2018-08-03T23:02:04.424Z,23.3
2018-08-03T23:02:53.076Z,23.3
2018-08-03T23:03:44.539Z,23.3
2018-08-03T23:04:34.609Z,23.3
2018-08-03T23:05:24.133Z,23.3
2018-08-03T23:06:15.021Z,23.3
2018-08-03T23:07:05.081Z,23.3
2018-08-03T23:07:54.715Z,23.3
2018-08-03T23:08:44.078Z,23.3
2018-08-03T23:09:35.353Z,23.3
2018-08-03T23:10:24.351Z,23.3
2018-08-03T23:11:14.931Z,23.3
2018-08-03T23:12:04.187Z,23.3
2018-08-03T23:12:55.080Z,23.3
2018-08-03T23:13:44.546Z,23.3
2018-08-03T23:14:34.069Z,23.3
2018-08-03T23:15:24.148Z,23.3
2018-08-03T23:16:14.179Z,23.3
2018-08-03T23:17:05.342Z,23.3
2018-08-03T23:17:55.398Z,23.3
2018-08-03T23:18:45.493Z,23.3
2018-08-03T23:19:35.792Z,23.3
2018-08-03T23:20:24.802Z,23.3
2018-08-03T23:21:15.706Z,23.3
2018-08-03T23:22:05.510Z,23.3
2018-08-03T23:22:55.420Z,23.3
2018-08-03T23:23:45.785Z,23.3
2018-08-03T23:24:36.108Z,23.3
2018-08-03T23:25:26.012Z,23.3
2018-08-03T23:26:16.316Z,23.3
2018-08-03T23:27:06.345Z,23.3
2018-08-03T23:27:56.097Z,23.3
2018-08-03T23:28:45.659Z,23.3
2018-08-03T23:29:35.951Z,23.3
2018-08-03T23:30:26.830Z,23.3
2018-08-03T23:31:15.857Z,23.3
2018-08-03T23:32:06.495Z,23.3
2018-08-03T23:32:56.801Z,23.3
2018-08-03T23:33:46.341Z,23.3
2018-08-03T23:34:36.926Z,23.3
2018-08-03T23:35:26.970Z,23.3
2018-08-03T23:36:17.032Z,23.3
2018-08-03T23:37:06.873Z,23.3
2018-08-03T23:37:56.614Z,23.3
2018-08-03T23:38:46.983Z,23.3
2018-08-03T23:39:37.345Z,23.3
2018-08-03T23:40:27.345Z,23.3
2018-08-03T23:41:17.464Z,23.3
2018-08-03T23:42:07.226Z,23.3
2018-08-03T23:42:57.276Z,23.3
2018-08-03T23:43:47.668Z,23.3
2018-08-03T23:44:37.183Z,23.3
2018-08-03T23:45:27.516Z,23.3
2018-08-03T23:46:17.333Z,23.3
2018-08-03T23:47:06.838Z,23.3
2018-08-03T23:47:57.480Z,23.3
2018-08-03T23:48:47.512Z,23.3
2018-08-03T23:49:37.373Z,23.3
2018-08-03T23:50:27.628Z,23.3
2018-08-03T23:51:16.945Z,23.2
2018-08-03T23:52:07.251Z,23.2
2018-08-03T23:52:57.940Z,23.2
2018-08-03T23:53:48.496Z,23.3
2018-08-03T23:54:37.649Z,23.2
2018-08-03T23:55:27.706Z,23.3
2018-08-03T23:56:18.617Z,23.2
2018-08-03T23:57:08.083Z,23.3
2018-08-03T23:57:59.195Z,23.3
2018-08-03T23:58:49.064Z,23.2
2018-08-03T23:59:39.232Z,23.2
